Stormwatcher's Retreat Logo




                  Temp     Hi    Low   Out    Dew  Wind  Wind   Wind    Hi    Hi   Wind   Heat    THW   THSW                Rain  Solar   Solar Hi Solar   UV    UV    Hi     Heat    Cool    In     In    In     In     In   In Air          Wind  Wind    ISS   Arc.
  Date    Time     Out   Temp   Temp   Hum    Pt. Speed   Dir    Run Speed   Dir  Chill  Index  Index  Index   Bar    Rain  Rate   Rad.  Energy    Rad.  Index  Dose   UV     D-D     D-D    Temp   Hum    Dew   Heat    EMC Density     ET   Samp   Tx   Recept  Int.
------------------------------------------------------------------------------------------------------------------------------------------------------------------------------------------------------------------------------------------------------------------------
 9/24/20 12:10a   60.6   60.8   60.6    90   57.7   8.0     S   1.33  15.0     S   59.2   61.0   59.6   57.6  29.956  0.00  0.00     0     0.00      0     0.0  0.00   0.0   0.031   0.000   73.8    58   58.1   74.2  10.60  .0733    0.000   201    7    100.0   10 
 9/24/20 12:20a   60.5   60.7   60.5    89   57.2   6.0     S   1.00  11.0     S   60.2   60.8   60.5   58.4  29.960  0.00  0.00     0     0.00      0     0.0  0.00   0.0   0.031   0.000   73.8    58   58.1   74.2  10.60  .0733    0.000   203    7    100.0   10 
 9/24/20 12:30a   60.4   60.6   60.4    88   56.8   7.0     S   1.17  13.0     S   59.7   60.7   60.0   57.8  29.963  0.00  0.00     0     0.00      0     0.0  0.00   0.0   0.032   0.000   73.8    58   58.1   74.2  10.60  .0733    0.000   203    7    100.0   10 
 9/24/20 12:40a   60.7   60.7   60.4    86   56.5   6.0     S   1.00  12.0     S   60.4   60.9   60.6   58.4  29.960  0.00  0.00     0     0.00      0     0.0  0.00   0.0   0.030   0.000   73.8    58   58.1   74.2  10.60  .0733    0.000   203    7    100.0   10 
 9/24/20 12:50a   60.6   60.7   60.5    86   56.4   6.0     S   1.00  12.0     S   60.3   60.8   60.5   58.3  29.962  0.00  0.00     0     0.00      0     0.0  0.00   0.0   0.031   0.000   73.7    58   58.0   74.1  10.60  .0733    0.000   202    7    100.0   10 
 9/24/20  1:00a   60.9   61.0   60.6    85   56.4   6.0     S   1.00  14.0   SSE   60.7   61.1   60.9   58.7  29.969  0.00  0.00     0     0.00      0     0.0  0.00   0.0   0.028   0.000   73.7    58   58.0   74.1  10.60  .0733    0.001   203    7    100.0   10 
 9/24/20  1:10a   60.7   61.2   60.7    86   56.5   5.0     S   0.83  10.0     S   60.7   60.9   60.9   58.7  29.972  0.00  0.00     0     0.00      0     0.0  0.00   0.0   0.030   0.000   73.7    58   58.0   74.1  10.60  .0733    0.000   204    7    100.0   10 
 9/24/20  1:20a   60.5   60.7   60.4    87   56.6   4.0     S   0.67   9.0     S   60.5   60.7   60.7   58.5  29.973  0.00  0.00     0     0.00      0     0.0  0.00   0.0   0.031   0.000   73.6    58   57.9   74.0  10.61  .0733    0.000   203    7    100.0   10 
 9/24/20  1:30a   60.5   60.6   60.4    87   56.6   5.0     S   0.83  11.0     S   60.5   60.7   60.7   58.5  29.978  0.00  0.00     0     0.00      0     0.0  0.00   0.0   0.031   0.000   73.6    58   57.9   74.0  10.61  .0734    0.000   204    7    100.0   10 
 9/24/20  1:40a   60.4   60.5   60.3    88   56.8   5.0     S   0.83  11.0   SSW   60.4   60.7   60.7   58.5  29.983  0.00  0.00     0     0.00      0     0.0  0.00   0.0   0.032   0.000   73.6    58   57.9   74.0  10.61  .0734    0.000   203    7    100.0   10 
 9/24/20  1:50a   60.5   60.5   60.2    88   56.9   5.0     S   0.83  10.0   SSW   60.5   60.8   60.8   58.6  29.985  0.00  0.00     0     0.00      0     0.0  0.00   0.0   0.031   0.000   73.6    58   57.9   74.0  10.61  .0734    0.000   204    7    100.0   10 
 9/24/20  2:00a   60.6   60.7   60.5    88   57.0   6.0     S   1.00  12.0     S   60.3   60.9   60.6   58.5  29.988  0.00  0.00     0     0.00      0     0.0  0.00   0.0   0.031   0.000   73.6    58   57.9   74.0  10.61  .0734    0.001   203    7    100.0   10 
 9/24/20  2:10a   60.4   60.7   60.4    89   57.1   5.0     S   0.83  10.0    SE   60.4   60.7   60.7   58.6  29.990  0.00  0.00     0     0.00      0     0.0  0.00   0.0   0.032   0.000   73.5    58   57.8   73.9  10.61  .0734    0.000   203    7    100.0   10 
 9/24/20  2:20a   60.4   60.4   60.3    89   57.1   5.0     S   0.83  10.0   SSE   60.4   60.7   60.7   58.6  29.993  0.00  0.00     0     0.00      0     0.0  0.00   0.0   0.032   0.000   73.5    58   57.8   73.9  10.61  .0734    0.000   203    7    100.0   10 
 9/24/20  2:30a   60.5   60.5   60.4    89   57.2   5.0     S   0.83  10.0   SSE   60.5   60.8   60.8   58.7  29.993  0.00  0.00     0     0.00      0     0.0  0.00   0.0   0.031   0.000   73.5    58   57.8   73.9  10.61  .0734    0.000   203    7    100.0   10 
 9/24/20  2:40a   60.6   60.7   60.4    89   57.3   6.0     S   1.00   9.0   SSW   60.3   60.9   60.6   58.5  29.994  0.00  0.00     0     0.00      0     0.0  0.00   0.0   0.031   0.000   73.4    58   57.7   73.7  10.61  .0734    0.000   204    7    100.0   10 
 9/24/20  2:50a   60.7   60.7   60.5    89   57.4   5.0     S   0.83  10.0   SSE   60.7   61.0   61.0   58.9  29.993  0.00  0.00     0     0.00      0     0.0  0.00   0.0   0.030   0.000   73.4    58   57.7   73.7  10.61  .0734    0.000   205    7    100.0   10 
 9/24/20  3:00a   60.9   60.9   60.7    89   57.6   6.0     S   1.00  11.0     S   60.7   61.3   61.1   59.0  29.997  0.00  0.00     0     0.00      0     0.0  0.00   0.0   0.028   0.000   73.4    58   57.7   73.7  10.61  .0734    0.001   204    7    100.0   10 
 9/24/20  3:10a   60.7   60.9   60.7    90   57.7   5.0     S   0.83   9.0     S   60.7   61.1   61.1   59.0  30.000  0.00  0.00     0     0.00      0     0.0  0.00   0.0   0.030   0.000   73.3    58   57.6   73.6  10.62  .0735    0.000   202    7    100.0   10 
 9/24/20  3:20a   60.9   60.9   60.7    90   57.9   5.0     S   0.83  10.0     S   60.9   61.3   61.3   59.2  30.000  0.00  0.00     0     0.00      0     0.0  0.00   0.0   0.028   0.000   73.3    58   57.6   73.6  10.62  .0735    0.000   202    7    100.0   10 
 9/24/20  3:30a   60.7   60.9   60.7    91   58.1   5.0     S   0.83   9.0   SSE   60.7   61.1   61.1   59.0  30.001  0.00  0.00     0     0.00      0     0.0  0.00   0.0   0.030   0.000   73.2    58   57.5   73.5  10.62  .0735    0.000   203    7    100.0   10 
 9/24/20  3:40a   60.6   60.8   60.5    91   58.0   5.0     S   0.83  11.0     S   60.6   61.0   61.0   58.9  30.000  0.00  0.00     0     0.00      0     0.0  0.00   0.0   0.031   0.000   73.2    58   57.5   73.5  10.62  .0735    0.000   202    7    100.0   10 
 9/24/20  3:50a   60.7   60.7   60.5    91   58.1   5.0     S   0.83  10.0     S   60.7   61.1   61.1   59.0  30.005  0.00  0.00     0     0.00      0     0.0  0.00   0.0   0.030   0.000   73.2    58   57.5   73.5  10.62  .0735    0.000   203    7    100.0   10 
 9/24/20  4:00a   60.7   60.7   60.5    92   58.4   6.0     S   1.00  10.0     S   60.4   61.1   60.8   58.7  30.006  0.00  0.00     0     0.00      0     0.0  0.00   0.0   0.030   0.000   73.1    58   57.4   73.4  10.63  .0735    0.001   205    7    100.0   10 
 9/24/20  4:10a   60.7   60.7   60.6    91   58.1   5.0     S   0.83   9.0     S   60.7   61.1   61.1   59.0  30.010  0.00  0.00     0     0.00      0     0.0  0.00   0.0   0.030   0.000   73.1    58   57.4   73.4  10.63  .0735    0.000   202    7    100.0   10 
 9/24/20  4:20a   60.6   60.7   60.5    92   58.3   5.0     S   0.83  11.0   SSE   60.6   61.0   61.0   58.9  30.010  0.00  0.00     0     0.00      0     0.0  0.00   0.0   0.031   0.000   73.1    58   57.4   73.4  10.63  .0735    0.000   204    7    100.0   10 
 9/24/20  4:30a   60.5   60.6   60.4    92   58.2   5.0     S   0.83   9.0   SSW   60.5   60.9   60.9   58.8  30.008  0.00  0.00     0     0.00      0     0.0  0.00   0.0   0.031   0.000   73.0    58   57.3   73.2  10.63  .0735    0.000   204    7    100.0   10 
 9/24/20  4:40a   60.7   60.7   60.4    91   58.1   5.0     S   0.83   9.0   SSW   60.7   61.1   61.1   59.0  30.007  0.00  0.00     0     0.00      0     0.0  0.00   0.0   0.030   0.000   73.0    58   57.3   73.2  10.63  .0735    0.000   204    7    100.0   10 
 9/24/20  4:50a   61.0   61.0   60.7    91   58.4   6.0     S   1.00  12.0     S   60.8   61.4   61.2   59.1  30.007  0.00  0.00     0     0.00      0     0.0  0.00   0.0   0.028   0.000   73.0    58   57.3   73.2  10.63  .0735    0.000   203    7    100.0   10 
 9/24/20  5:00a   61.0   61.1   60.9    91   58.4   8.0     S   1.33  12.0     S   59.7   61.4   60.1   58.1  30.011  0.00  0.00     0     0.00      0     0.0  0.00   0.0   0.028   0.000   72.9    58   57.3   73.1  10.63  .0736    0.001   203    7    100.0   10 
 9/24/20  5:10a   61.0   61.0   60.9    92   58.7   7.0     S   1.17  14.0     S   60.4   61.4   60.8   58.7  30.017  0.00  0.00     0     0.00      0     0.0  0.00   0.0   0.028   0.000   72.9    58   57.3   73.1  10.63  .0736    0.000   203    7    100.0   10 
 9/24/20  5:20a   61.0   61.1   60.9    92   58.7   7.0     S   1.17  16.0     S   60.4   61.4   60.8   58.7  30.018  0.00  0.00     0     0.00      0     0.0  0.00   0.0   0.028   0.000   72.9    58   57.3   73.1  10.63  .0736    0.000   204    7    100.0   10 
 9/24/20  5:30a   61.0   61.1   60.9    92   58.7   7.0     S   1.17  12.0   SSW   60.4   61.4   60.8   58.7  30.020  0.00  0.00     0     0.00      0     0.0  0.00   0.0   0.028   0.000   72.9    58   57.3   73.1  10.63  .0736    0.000   201    7    100.0   10 
 9/24/20  5:40a   61.0   61.2   61.0    92   58.7   6.0     S   1.00  11.0   SSE   60.8   61.4   61.2   59.1  30.023  0.00  0.00     0     0.00      0     0.0  0.00   0.0   0.028   0.000   72.9    58   57.3   73.1  10.63  .0736    0.000   204    7    100.0   10 
 9/24/20  5:50a   61.0   61.1   60.9    92   58.7   6.0     S   1.00  11.0     S   60.8   61.4   61.2   59.1  30.024  0.00  0.00     0     0.00      0     0.0  0.00   0.0   0.028   0.000   72.7    58   57.1   72.8  10.64  .0736    0.000   202    7    100.0   10 
 9/24/20  6:00a   61.0   61.1   61.0    92   58.7   6.0     S   1.00  12.0   SSE   60.8   61.4   61.2   59.1  30.029  0.00  0.00     0     0.00      0     0.0  0.00   0.0   0.028   0.000   72.6    59   57.4   72.7  10.85  .0736    0.001   202    7    100.0   10 
 9/24/20  6:10a   60.7   61.0   60.7    92   58.4   6.0     S   1.00  10.0     S   60.4   61.1   60.8   58.7  30.032  0.00  0.00     0     0.00      0     0.0  0.00   0.0   0.030   0.000   72.6    59   57.4   72.7  10.85  .0737    0.000   203    7    100.0   10 
 9/24/20  6:20a   60.8   60.8   60.6    93   58.8   7.0     S   1.17  12.0    SW   60.2   61.2   60.6   58.5  30.035  0.00  0.00     0     0.00      0     0.0  0.00   0.0   0.029   0.000   72.5    59   57.4   72.6  10.85  .0737    0.000   203    7    100.0   10 
 9/24/20  6:30a   61.0   61.1   60.9    92   58.7   8.0     S   1.33  15.0     S   59.7   61.4   60.1   58.1  30.033  0.00  0.00     0     0.00      0     0.0  0.00   0.0   0.028   0.000   72.5    59   57.4   72.6  10.85  .0737    0.000   205    7    100.0   10 
 9/24/20  6:40a   61.0   61.1   61.0    92   58.7   8.0     S   1.33  13.0     S   59.7   61.4   60.1   58.1  30.035  0.00  0.00     0     0.00      0     0.0  0.00   0.0   0.028   0.000   72.5    59   57.4   72.6  10.85  .0737    0.000   204    7    100.0   10 
 9/24/20  6:50a   60.9   61.1   60.8    93   58.9   7.0     S   1.17  14.0   SSW   60.3   61.4   60.8   58.7  30.039  0.00  0.00     0     0.00      0     0.0  0.00   0.0   0.028   0.000   72.5    59   57.4   72.6  10.85  .0737    0.000   204    7    100.0   10 
 9/24/20  7:00a   60.9   60.9   60.8    93   58.9   8.0     S   1.33  15.0     S   59.6   61.4   60.1   58.1  30.038  0.00  0.00     0     0.00      0     0.0  0.00   0.0   0.028   0.000   72.5    59   57.4   72.6  10.85  .0737    0.000   202    7    100.0   10 
 9/24/20  7:10a   61.0   61.0   60.9    93   59.0   7.0     S   1.17  14.0     S   60.4   61.5   60.9   58.8  30.037  0.00  0.00     0     0.00      0     0.0  0.00   0.0   0.028   0.000   72.4    59   57.3   72.4  10.85  .0737    0.000   203    7    100.0   10 
 9/24/20  7:20a   60.9   61.0   60.9    93   58.9   6.0     S   1.00  11.0   SSW   60.7   61.4   61.2   59.2  30.040  0.00  0.00     3     0.04      7     0.0  0.00   0.0   0.028   0.000   72.4    59   57.3   72.4  10.85  .0737    0.000   204    7    100.0   10 
 9/24/20  7:30a   60.9   61.0   60.8    93   58.9   5.0     S   0.83  10.0   SSW   60.9   61.4   61.4   59.6  30.041  0.00  0.00    10     0.14     12     0.0  0.00   0.0   0.028   0.000   72.5    59   57.4   72.6  10.85  .0737    0.000   203    7    100.0   10 
 9/24/20  7:40a   61.0   61.0   60.8    93   59.0   6.0     S   1.00  10.0   SSE   60.8   61.5   61.3   59.6  30.045  0.00  0.00    14     0.20     18     0.0  0.00   0.0   0.028   0.000   72.4    59   57.3   72.4  10.85  .0737    0.000   203    7    100.0   10 
 9/24/20  7:50a   61.0   61.0   60.9    93   59.0   6.0     S   1.00   9.0   SSW   60.8   61.5   61.3   60.7  30.045  0.00  0.00    23     0.33     28     0.0  0.00   0.0   0.028   0.000   72.4    59   57.3   72.4  10.85  .0737    0.000   203    7    100.0   10 
 9/24/20  8:00a   60.8   61.0   60.8    93   58.8   5.0     S   0.83  10.0   SSE   60.8   61.2   61.2   61.7  30.044  0.00  0.00    45     0.65     65     0.0  0.00   0.0   0.029   0.000   72.5    59   57.4   72.6  10.85  .0737    0.001   202    7    100.0   10 
 9/24/20  8:10a   61.0   61.0   60.8    92   58.7   6.0     S   1.00  10.0   SSE   60.8   61.4   61.2   63.2  30.042  0.00  0.00    82     1.18    104     0.0  0.00   0.0   0.028   0.000   72.5    59   57.4   72.6  10.85  .0737    0.000   203    7    100.0   10 
 9/24/20  8:20a   61.1   61.1   60.9    91   58.5   6.0     S   1.00  11.0     S   60.9   61.5   61.3   62.7  30.046  0.00  0.00    69     0.99    102     0.0  0.00   0.0   0.027   0.000   72.5    59   57.4   72.6  10.85  .0737    0.000   204    7    100.0   10 
 9/24/20  8:30a   61.1   61.1   61.0    91   58.5   6.0     S   1.00  10.0     S   60.9   61.5   61.3   62.3  30.050  0.00  0.00    62     0.89     72     0.0  0.00   0.0   0.027   0.000   72.6    59   57.4   72.7  10.85  .0737    0.000   204    7    100.0   10 
 9/24/20  8:40a   61.3   61.3   61.1    91   58.7   6.0     S   1.00  11.0   SSE   61.2   61.8   61.7   64.9  30.058  0.00  0.00   120     1.72    179     0.0  0.00   0.0   0.026   0.000   72.6    59   57.4   72.7  10.85  .0737    0.000   204    7    100.0   10 
 9/24/20  8:50a   61.4   61.4   61.3    90   58.4   5.0     S   0.83  10.0   SSE   61.4   61.8   61.8   66.3  30.057  0.00  0.00   159     2.28    250     0.0  0.00   0.0   0.025   0.000   72.7    59   57.5   72.9  10.84  .0737    0.000   202    7    100.0   10 
 9/24/20  9:00a   61.5   61.5   61.4    91   58.8   6.0     S   1.00  12.0   SSE   61.4   62.0   61.9   65.9  30.059  0.00  0.00   149     2.14    158     0.0  0.00   0.0   0.024   0.000   72.7    59   57.5   72.9  10.84  .0737    0.003   203    7    100.0   10 
 9/24/20  9:10a   61.6   61.6   61.4    90   58.6   6.0     S   1.00  13.0     S   61.5   62.1   62.0   64.1  30.061  0.00  0.00   100     1.43    206     0.2  0.01   0.6   0.024   0.000   72.8    59   57.6   73.0  10.84  .0737    0.000   204    7    100.0   10 
 9/24/20  9:20a   61.6   61.7   61.5    90   58.6   8.0     S   1.33  14.0     S   60.4   62.1   60.9   63.7  30.062  0.00  0.00   128     1.83    153     0.7  0.05   0.7   0.024   0.000   72.9    59   57.7   73.2  10.83  .0737    0.000   203    7    100.0   10 
 9/24/20  9:30a   61.0   61.5   61.0    92   58.7   9.0   SSW   1.50  14.0   SSE   58.9   61.4   59.3   62.2  30.070  0.00  0.00   141     2.02    167     0.7  0.05   0.7   0.028   0.000   73.0    59   57.8   73.3  10.83  .0737    0.000   202    7    100.0   10 
 9/24/20  9:40a   60.5   61.0   60.5    93   58.5   8.0     S   1.33  14.0   SSE   59.1   60.9   59.5   60.9  30.076  0.01  0.00    94     1.35    105     0.4  0.03   0.6   0.031   0.000   73.0    58   57.3   73.2  10.63  .0737    0.000   202    7    100.0   10 
 9/24/20  9:50a   60.8   60.8   60.4    94   59.1   5.0     S   0.83  10.0     S   60.8   61.3   61.3   64.3  30.072  0.00  0.00   141     2.02    221     0.8  0.06   1.4   0.029   0.000   73.0    58   57.3   73.2  10.63  .0737    0.000   203    7    100.0   10 
 9/24/20 10:00a   61.4   61.5   60.9    93   59.4   8.0     S   1.33  15.0     S   60.2   61.9   60.7   68.4  30.076  0.01  0.00   340     4.87    360     1.1  0.08   1.4   0.025   0.000   73.1    58   57.4   73.4  10.63  .0737    0.004   204    7    100.0   10 
 9/24/20 10:10a   61.3   61.6   61.2    92   59.0  10.0     S   1.67  18.0     S   58.5   61.8   59.0   60.2  30.075  0.00  0.00    99     1.42    197     0.6  0.04   1.0   0.026   0.000   73.1    58   57.4   73.4  10.63  .0737    0.000   202    7    100.0   10 
 9/24/20 10:20a   61.9   61.9   61.2    92   59.5   8.0     S   1.33  17.0     S   60.8   62.5   61.4   67.8  30.076  0.00  0.00   295     4.23    468     1.7  0.12   2.2   0.022   0.000   73.2    58   57.5   73.5  10.62  .0737    0.000   203    7    100.0   10 
 9/24/20 10:30a   62.3   62.3   61.8    92   59.9   8.0     S   1.33  18.0   SSE   61.3   62.9   61.9   71.9  30.077  0.00  0.00   510     7.31    529     2.3  0.16   2.5   0.019   0.000   73.3    58   57.6   73.6  10.62  .0737    0.000   201    7    100.0   10 
 9/24/20 10:40a   62.5   62.5   62.2    91   59.8   8.0     S   1.33  15.0     S   61.5   63.1   62.1   71.9  30.080  0.00  0.00   596     8.54    659     2.6  0.19   2.7   0.017   0.000   73.4    58   57.7   73.7  10.61  .0736    0.000   203    7    100.0   10 
 9/24/20 10:50a   62.0   62.6   61.9    92   59.6  10.0     S   1.67  17.0     S   59.3   62.6   59.9   63.8  30.082  0.00  0.00   216     3.10    299     2.1  0.15   3.0   0.021   0.000   73.4    58   57.7   73.7  10.61  .0737    0.000   201    7    100.0   10 
 9/24/20 11:00a   62.5   62.5   62.0    90   59.5  11.0     S   1.83  20.0     S   59.2   63.1   59.8   66.7  30.083  0.00  0.00   388     5.56    568     2.5  0.18   2.9   0.017   0.000   73.5    58   57.8   73.9  10.61  .0736    0.008   202    7    100.0   10 
 9/24/20 11:10a   62.6   62.7   62.4    90   59.6  11.0     S   1.83  16.0     S   59.3   63.2   59.9   67.8  30.082  0.00  0.00   464     6.65    601     2.7  0.19   3.1   0.017   0.000   73.5    58   57.8   73.9  10.61  .0736    0.000   203    7    100.0   10 
 9/24/20 11:20a   62.9   62.9   62.5    90   59.9  11.0     S   1.83  17.0   SSE   59.7   63.6   60.4   68.8  30.084  0.00  0.00   512     7.34    610     3.2  0.23   3.4   0.015   0.000   73.6    59   58.4   74.1  10.81  .0736    0.000   202    7    100.0   10 
 9/24/20 11:30a   62.7   62.9   62.7    89   59.4  12.0     S   2.00  21.0     S   58.8   63.3   59.4   67.7  30.086  0.00  0.00   532     7.63    691     3.3  0.24   3.8   0.016   0.000   73.6    59   58.4   74.1  10.81  .0736    0.000   200    7    100.0   10 
 9/24/20 11:40a   62.9   62.9   62.6    88   59.3  12.0     S   2.00  18.0     S   59.1   63.5   59.7   66.5  30.086  0.00  0.00   425     6.09    554     3.1  0.22   3.4   0.015   0.000   73.7    59   58.5   74.2  10.80  .0736    0.000   203    7    100.0   10 
 9/24/20 11:50a   62.5   63.0   62.5    90   59.5  12.0     S   2.00  19.0     S   58.6   63.1   59.2   65.4  30.087  0.00  0.00   385     5.52    519     2.5  0.18   3.3   0.017   0.000   73.7    59   58.5   74.2  10.80  .0736    0.000   203    7    100.0   10 
 9/24/20 12:00p   62.2   62.6   62.2    92   59.8  11.0     S   1.83  18.0     S   58.8   62.8   59.4   62.5  30.089  0.00  0.00   210     3.01    241     1.5  0.11   1.7   0.019   0.000   73.7    59   58.5   74.2  10.80  .0736    0.010   204    7    100.0   10 
 9/24/20 12:10p   62.2   62.3   62.2    92   59.8  11.0     S   1.83  19.0   SSE   58.8   62.8   59.4   64.0  30.093  0.00  0.00   287     4.11    353     2.0  0.14   2.4   0.019   0.000   73.7    59   58.5   74.2  10.80  .0736    0.000   203    7    100.0   10 
 9/24/20 12:20p   62.0   62.3   62.0    93   60.0  12.0     S   2.00  16.0    SW   58.0   62.6   58.6   63.5  30.094  0.00  0.00   316     4.53    360     2.1  0.15   2.3   0.021   0.000   73.7    59   58.5   74.2  10.80  .0736    0.000   204    7    100.0   10 
 9/24/20 12:30p   61.6   62.0   61.6    93   59.6  11.0     S   1.83  17.0   SSE   58.2   62.2   58.8   62.7  30.097  0.00  0.00   253     3.63    329     2.0  0.14   2.5   0.024   0.000   73.7    59   58.5   74.2  10.80  .0736    0.000   202    7    100.0   10 
 9/24/20 12:40p   61.5   61.6   61.4    94   59.8  11.0     S   1.83  15.0     S   58.1   62.1   58.7   63.6  30.097  0.00  0.00   312     4.47    376     2.6  0.19   2.9   0.024   0.000   73.7    59   58.5   74.2  10.80  .0736    0.000   203    7    100.0   10 
 9/24/20 12:50p   61.2   61.6   61.2    94   59.5  11.0     S   1.83  16.0     S   57.7   61.7   58.2   63.5  30.098  0.00  0.00   333     4.77    450     2.9  0.21   3.1   0.026   0.000   73.8    59   58.6   74.3  10.80  .0736    0.000   205    7    100.0   10 
 9/24/20  1:00p   61.4   61.5   61.2    95   60.0  10.0   SSW   1.67  16.0   SSE   58.6   62.0   59.2   64.6  30.098  0.00  0.00   324     4.64    341     3.0  0.21   3.1   0.025   0.000   73.8    59   58.6   74.3  10.80  .0736    0.007   204    7    100.0   10 
 9/24/20  1:10p   61.7   61.7   61.4    94   60.0  10.0     S   1.67  14.0   SSW   58.9   62.3   59.5   66.4  30.099  0.00  0.00   415     5.95    587     3.5  0.25   4.1   0.023   0.000   73.8    59   58.6   74.3  10.80  .0736    0.000   202    7    100.0   10 
 9/24/20  1:20p   62.2   62.2   61.6    95   60.8  10.0     S   1.67  16.0     S   59.5   62.9   60.2   69.8  30.097  0.00  0.00   641     9.19    752     4.4  0.31   4.8   0.019   0.000   73.8    59   58.6   74.3  10.80  .0736    0.000   203    7    100.0   10 
 9/24/20  1:30p   62.0   62.2   61.8    94   60.3  10.0     S   1.67  18.0   SSE   59.3   62.7   60.0   69.0  30.094  0.00  0.00   574     8.23    654     4.0  0.29   4.3   0.021   0.000   73.9    60   59.1   74.6  10.97  .0736    0.000   203    7    100.0   10 
 9/24/20  1:40p   61.7   62.1   61.7    94   60.0  11.0     S   1.83  15.0     S   58.3   62.3   58.9   67.1  30.093  0.00  0.00   540     7.74    661     3.6  0.26   4.2   0.023   0.000   73.9    60   59.1   74.6  10.97  .0735    0.000   204    7    100.0   10 
 9/24/20  1:50p   61.4   61.7   61.4    94   59.7  11.0   SSW   1.83  15.0   SSW   57.9   62.0   58.5   64.1  30.094  0.00  0.00   351     5.03    413     2.8  0.20   3.1   0.025   0.000   73.9    60   59.1   74.6  10.97  .0736    0.000   202    7    100.0   10 
 9/24/20  2:00p   61.8   61.8   61.3    94   60.1  10.0     S   1.67  16.0     S   59.1   62.4   59.7   66.7  30.090  0.00  0.00   423     6.06    501     3.1  0.22   3.4   0.022   0.000   74.0    60   59.2   74.7  10.97  .0735    0.011   204    7    100.0   10 
 9/24/20  2:10p   61.7   61.8   61.6    94   60.0  10.0     S   1.67  16.0   SSE   58.9   62.3   59.5   67.6  30.091  0.00  0.00   495     7.10    786     3.3  0.24   4.1   0.023   0.000   74.0    60   59.2   74.7  10.97  .0735    0.000   205    7    100.0   10 
 9/24/20  2:20p   61.9   62.0   61.7    94   60.2  10.0     S   1.67  17.0   SSE   59.2   62.5   59.8   69.5  30.089  0.00  0.00   722    10.35    796     4.2  0.30   4.5   0.022   0.000   74.0    60   59.2   74.7  10.97  .0735    0.000   203    7    100.0   10 
 9/24/20  2:30p   62.0   62.0   61.8    94   60.3  10.0   SSW   1.67  15.0   SSE   59.3   62.7   60.0   69.8  30.085  0.00  0.00   705    10.11    749     4.1  0.29   4.3   0.021   0.000   74.1    60   59.3   74.8  10.97  .0735    0.000   201    7    100.0   10 
 9/24/20  2:40p   61.7   62.1   61.6    93   59.7  11.0   SSW   1.83  18.0   SSE   58.3   62.3   58.9   68.1  30.082  0.00  0.00   618     8.86    786     3.8  0.27   4.4   0.023   0.000   74.2    60   59.4   74.9  10.97  .0735    0.000   204    7    100.0   10 
 9/24/20  2:50p   61.7   61.8   61.6    93   59.7  10.0     S   1.67  14.0     S   58.9   62.3   59.5   69.1  30.079  0.00  0.00   634     9.09    679     3.8  0.27   3.9   0.023   0.000   74.2    60   59.4   74.9  10.97  .0735    0.000   204    7    100.0   10 
 9/24/20  3:00p   61.8   61.9   61.7    93   59.8  10.0   SSW   1.67  15.0   SSE   59.1   62.4   59.7   69.4  30.080  0.00  0.00   641     9.19    664     3.6  0.26   3.7   0.022   0.000   74.2    60   59.4   74.9  10.97  .0735    0.014   202    7    100.0   10 
 9/24/20  3:10p   61.8   61.8   61.7    93   59.8  10.0   SSW   1.67  15.0   SSE   59.1   62.4   59.7   69.3  30.078  0.00  0.00   623     8.93    664     3.4  0.24   3.6   0.022   0.000   74.3    60   59.5   75.1  10.96  .0734    0.000   202    7    100.0   10 
 9/24/20  3:20p   61.6   62.0   61.6    93   59.6  10.0     S   1.67  15.0   SSE   58.8   62.2   59.4   69.0  30.078  0.00  0.00   613     8.79    628     3.2  0.23   3.2   0.024   0.000   74.3    60   59.5   75.1  10.96  .0734    0.000   202    7    100.0   10 
 9/24/20  3:30p   61.7   61.8   61.6    92   59.4  10.0   SSW   1.67  14.0     S   58.9   62.2   59.4   68.9  30.078  0.00  0.00   580     8.31    603     2.9  0.21   3.0   0.023   0.000   74.4    60   59.6   75.2  10.96  .0734    0.000   204    7    100.0   10 
 9/24/20  3:40p   61.7   61.8   61.6    93   59.7  10.0     S   1.67  15.0   SSE   58.9   62.3   59.5   68.9  30.081  0.00  0.00   559     8.01    587     2.7  0.19   2.8   0.023   0.000   74.4    60   59.6   75.2  10.96  .0734    0.000   202    7    100.0   10 
 9/24/20  3:50p   61.8   61.8   61.6    93   59.8  10.0     S   1.67  16.0   SSE   59.1   62.4   59.7   68.9  30.084  0.00  0.00   522     7.48    531     2.5  0.18   2.6   0.022   0.000   74.5    60   59.7   75.3  10.96  .0734    0.000   202    7    100.0   10 
 9/24/20  4:00p   61.6   61.9   61.6    93   59.6  11.0     S   1.83  16.0   SSE   58.2   62.2   58.8   67.5  30.083  0.00  0.00   504     7.22    536     2.2  0.16   2.4   0.024   0.000   74.6    60   59.8   75.4  10.96  .0734    0.012   203    7    100.0   10 
 9/24/20  4:10p   61.7   61.7   61.6    93   59.7   9.0   SSW   1.50  13.0   SSW   59.7   62.3   60.3   69.6  30.075  0.00  0.00   479     6.87    520     1.9  0.14   2.1   0.023   0.000   74.6    60   59.8   75.4  10.96  .0734    0.000   205    7    100.0   10 
 9/24/20  4:20p   61.5   61.8   61.5    93   59.5   9.0     S   1.50  14.0     S   59.5   62.0   60.0   67.9  30.074  0.00  0.00   376     5.39    513     1.6  0.11   1.9   0.024   0.000   74.7    60   59.9   75.5  10.96  .0734    0.000   201    7    100.0   10 
 9/24/20  4:30p   61.6   61.7   61.5    93   59.6   9.0     S   1.50  14.0   SSE   59.6   62.2   60.2   67.2  30.074  0.00  0.00   325     4.66    473     1.4  0.10   1.7   0.024   0.000   74.8    60   60.0   75.7  10.95  .0733    0.000   202    7    100.0   10 
 9/24/20  4:40p   61.6   61.8   61.6    93   59.6  10.0   SSW   1.67  14.0     S   58.8   62.2   59.4   67.8  30.076  0.00  0.00   412     5.91    436     1.4  0.10   1.5   0.024   0.000   74.8    60   60.0   75.7  10.95  .0733    0.000   205    7    100.0   10 
 9/24/20  4:50p   61.6   61.7   61.6    94   59.9  10.0   SSW   1.67  17.0   SSE   58.8   62.2   59.4   67.8  30.086  0.00  0.00   399     5.72    464     1.2  0.09   1.3   0.024   0.000   74.9    60   60.1   75.8  10.95  .0734    0.000   204    7    100.0   10 
 9/24/20  5:00p   61.4   61.6   61.4    94   59.7   9.0     S   1.50  16.0   SSE   59.3   62.0   59.9   68.5  30.075  0.00  0.00   382     5.48    446     1.1  0.08   1.1   0.025   0.000   74.9    60   60.1   75.8  10.95  .0733    0.009   204    7    100.0   10 
 9/24/20  5:10p   61.1   61.5   61.0    94   59.4   9.0     S   1.50  14.0   SSE   59.0   61.6   59.5   65.1  30.075  0.00  0.00   230     3.30    320     0.9  0.06   1.0   0.027   0.000   74.9    60   60.1   75.8  10.95  .0733    0.000   202    7    100.0   10 
 9/24/20  5:20p   61.2   61.3   61.1    94   59.5   9.0     S   1.50  13.0   SSW   59.1   61.7   59.6   66.4  30.066  0.00  0.00   276     3.96    295     0.8  0.06   0.8   0.026   0.000   74.6    60   59.8   75.4  10.96  .0734    0.000   204    7    100.0   10 
 9/24/20  5:30p   61.3   61.4   61.2    94   59.6   9.0     S   1.50  13.0   SSE   59.2   61.8   59.7   66.4  30.061  0.00  0.00   260     3.73    274     0.6  0.04   0.7   0.026   0.000   74.7    60   59.9   75.5  10.96  .0733    0.000   201    7    100.0   10 
 9/24/20  5:40p   61.2   61.4   61.2    93   59.2   9.0   SSW   1.50  13.0     S   59.1   61.7   59.6   65.7  30.054  0.00  0.00   230     3.30    241     0.5  0.04   0.6   0.026   0.000   74.8    60   60.0   75.7  10.95  .0733    0.000   204    7    100.0   10 
 9/24/20  5:50p   61.2   61.3   61.1    92   58.9   9.0     S   1.50  14.0     S   59.1   61.7   59.6   65.0  30.050  0.00  0.00   199     2.85    206     0.0  0.00   0.0   0.026   0.000   74.8    60   60.0   75.7  10.95  .0733    0.000   204    7    100.0   10 
 9/24/20  6:00p   61.3   61.3   61.1    91   58.7   9.0     S   1.50  12.0   SSE   59.2   61.8   59.7   64.4  30.049  0.00  0.00   175     2.51    192     0.0  0.00   0.0   0.026   0.000   74.8    60   60.0   75.7  10.95  .0733    0.005   203    7    100.0   10 
 9/24/20  6:10p   61.4   61.4   61.2    91   58.7   9.0   SSW   1.50  13.0   SSE   59.3   61.9   59.8   63.6  30.044  0.00  0.00   142     2.04    156     0.0  0.00   0.0   0.025   0.000   74.8    59   59.5   75.6  10.76  .0733    0.000   201    7    100.0   10 
 9/24/20  6:20p   61.5   61.5   61.4    90   58.5   8.0   SSW   1.33  12.0    SE   60.3   62.0   60.8   63.7  30.046  0.00  0.00   111     1.59    125     0.0  0.00   0.0   0.024   0.000   74.8    59   59.5   75.6  10.76  .0733    0.000   202    7    100.0   10 
 9/24/20  6:30p   61.6   61.7   61.5    89   58.3   8.0     S   1.33  13.0     S   60.4   62.0   60.8   62.6  30.049  0.00  0.00    79     1.13     93     0.0  0.00   0.0   0.024   0.000   74.8    59   59.5   75.6  10.76  .0733    0.000   203    7    100.0   10 
 9/24/20  6:40p   61.3   61.6   61.3    89   58.0   8.0   SSW   1.33  13.0   WSW   60.1   61.7   60.5   60.8  30.046  0.00  0.00    41     0.59     46     0.0  0.00   0.0   0.026   0.000   74.8    59   59.5   75.6  10.76  .0733    0.000   204    7    100.0   10 
 9/24/20  6:50p   61.2   61.3   61.2    89   57.9   8.0     S   1.33  14.0   SSE   59.9   61.6   60.3   58.8  30.046  0.00  0.00    29     0.42     42     0.0  0.00   0.0   0.026   0.000   74.8    59   59.5   75.6  10.76  .0733    0.000   203    7    100.0   10 
 9/24/20  7:00p   61.2   61.3   61.2    89   57.9   6.0     S   1.00  14.0     S   61.0   61.6   61.4   59.4  30.043  0.00  0.00    13     0.19     16     0.0  0.00   0.0   0.026   0.000   74.8    58   59.0   75.5  10.56  .0733    0.002   204    7    100.0   10 
 9/24/20  7:10p   61.3   61.3   61.1    90   58.3   6.0     S   1.00  13.0     S   61.2   61.7   61.6   59.5  30.047  0.00  0.00     4     0.06      9     0.0  0.00   0.0   0.026   0.000   74.4    59   59.1   75.1  10.77  .0734    0.000   204    7    100.0   10 
 9/24/20  7:20p   61.3   61.4   61.3    90   58.3   6.0     S   1.00  11.0     S   61.2   61.7   61.6   59.4  30.045  0.00  0.00     0     0.00      0     0.0  0.00   0.0   0.026   0.000   74.1    59   58.9   74.7  10.79  .0734    0.000   205    7    100.0   10 
 9/24/20  7:30p   61.3   61.3   61.2    91   58.7   6.0     S   1.00  10.0   SSE   61.2   61.8   61.7   59.5  30.044  0.00  0.00     0     0.00      0     0.0  0.00   0.0   0.026   0.000   73.9    59   58.7   74.5  10.79  .0734    0.000   201    7    100.0   10 
 9/24/20  7:40p   61.3   61.4   61.3    91   58.7   5.0     S   0.83   9.0    SW   61.3   61.8   61.8   59.6  30.043  0.00  0.00     0     0.00      0     0.0  0.00   0.0   0.026   0.000   73.9    60   59.1   74.6  10.97  .0734    0.000   203    7    100.0   10 
 9/24/20  7:50p   61.3   61.4   61.3    91   58.7   5.0     S   0.83   9.0     S   61.3   61.8   61.8   59.6  30.043  0.00  0.00     0     0.00      0     0.0  0.00   0.0   0.026   0.000   74.1    60   59.3   74.8  10.97  .0734    0.000   202    7    100.0   10 
 9/24/20  8:00p   61.3   61.4   61.3    92   59.0   5.0     S   0.83  10.0     S   61.3   61.8   61.8   59.6  30.033  0.00  0.00     0     0.00      0     0.0  0.00   0.0   0.026   0.000   74.3    60   59.5   75.1  10.96  .0733    0.000   203    7    100.0   10 
 9/24/20  8:10p   61.3   61.4   61.3    92   59.0   5.0     S   0.83   9.0     S   61.3   61.8   61.8   59.6  30.032  0.00  0.00     0     0.00      0     0.0  0.00   0.0   0.026   0.000   74.4    60   59.6   75.2  10.96  .0733    0.000   203    7    100.0   10 
 9/24/20  8:20p   61.1   61.4   61.1    92   58.8   5.0     S   0.83   9.0   SSE   61.1   61.6   61.6   59.4  30.028  0.00  0.00     0     0.00      0     0.0  0.00   0.0   0.027   0.000   74.5    60   59.7   75.3  10.96  .0733    0.000   204    7    100.0   10 
 9/24/20  8:30p   61.1   61.2   61.1    91   58.5   5.0     S   0.83   8.0    SE   61.1   61.5   61.5   59.3  30.034  0.00  0.00     0     0.00      0     0.0  0.00   0.0   0.027   0.000   74.5    60   59.7   75.3  10.96  .0733    0.000   205    7    100.0   10 
 9/24/20  8:40p   61.0   61.2   61.0    91   58.4   5.0     S   0.83   9.0   WNW   61.0   61.4   61.4   59.2  30.034  0.00  0.00     0     0.00      0     0.0  0.00   0.0   0.028   0.000   74.6    59   59.3   75.3  10.77  .0733    0.000   203    7    100.0   10 
 9/24/20  8:50p   60.9   61.1   60.9    91   58.3   5.0   SSW   0.83  10.0   SSE   60.9   61.3   61.3   59.1  30.032  0.00  0.00     0     0.00      0     0.0  0.00   0.0   0.028   0.000   74.6    59   59.3   75.3  10.77  .0733    0.000   203    7    100.0   10 
 9/24/20  9:00p   60.7   61.0   60.7    92   58.4   6.0     S   1.00  10.0   SSW   60.4   61.1   60.8   58.6  30.026  0.00  0.00     0     0.00      0     0.0  0.00   0.0   0.030   0.000   74.6    59   59.3   75.3  10.77  .0733    0.001   202    7    100.0   10 
 9/24/20  9:10p   60.7   60.8   60.7    91   58.1   6.0     S   1.00  11.0   SSE   60.4   61.1   60.8   58.6  30.027  0.00  0.00     0     0.00      0     0.0  0.00   0.0   0.030   0.000   74.6    59   59.3   75.3  10.77  .0733    0.000   203    7    100.0   10 
 9/24/20  9:20p   60.7   60.7   60.7    91   58.1   6.0     S   1.00  10.0     S   60.4   61.1   60.8   58.6  30.025  0.00  0.00     0     0.00      0     0.0  0.00   0.0   0.030   0.000   74.6    59   59.3   75.3  10.77  .0733    0.000   202    7    100.0   10 
 9/24/20  9:30p   60.7   60.7   60.6    90   57.7   5.0     S   0.83  10.0     S   60.7   61.1   61.1   58.8  30.020  0.00  0.00     0     0.00      0     0.0  0.00   0.0   0.030   0.000   74.5    59   59.2   75.2  10.77  .0733    0.000   202    7    100.0   10 
 9/24/20  9:40p   60.7   60.7   60.6    89   57.4   5.0     S   0.83   9.0     S   60.7   61.0   61.0   58.7  30.016  0.00  0.00     0     0.00      0     0.0  0.00   0.0   0.030   0.000   74.5    59   59.2   75.2  10.77  .0733    0.000   204    7    100.0   10 
 9/24/20  9:50p   60.7   60.8   60.7    89   57.4   5.0     S   0.83   9.0   WSW   60.7   61.0   61.0   58.7  30.015  0.00  0.00     0     0.00      0     0.0  0.00   0.0   0.030   0.000   74.5    59   59.2   75.2  10.77  .0733    0.000   202    7    100.0   10 
 9/24/20 10:00p   61.1   61.1   60.8    89   57.8   6.0     S   1.00  11.0     S   60.9   61.5   61.3   59.0  30.005  0.00  0.00     0     0.00      0     0.0  0.00   0.0   0.027   0.000   74.5    59   59.2   75.2  10.77  .0732    0.001   201    7    100.0   10 
 9/24/20 10:10p   61.2   61.3   61.1    89   57.9   5.0     S   0.83   8.0   SSW   61.2   61.6   61.6   59.3  30.010  0.00  0.00     0     0.00      0     0.0  0.00   0.0   0.026   0.000   74.5    59   59.2   75.2  10.77  .0733    0.000   204    7    100.0   10 
 9/24/20 10:20p   61.6   61.6   61.2    90   58.6   6.0     S   1.00  12.0   ESE   61.5   62.1   62.0   59.8  30.006  0.00  0.00     0     0.00      0     0.0  0.00   0.0   0.024   0.000   74.4    59   59.1   75.1  10.77  .0733    0.000   203    7    100.0   10 
 9/24/20 10:30p   61.5   61.6   61.5    91   58.8   5.0     S   0.83   9.0     S   61.5   62.0   62.0   59.8  30.001  0.00  0.00     0     0.00      0     0.0  0.00   0.0   0.024   0.000   74.4    59   59.1   75.1  10.77  .0733    0.000   203    7    100.0   10 
 9/24/20 10:40p   61.5   61.5   61.4    91   58.8   5.0     S   0.83   9.0   SSW   61.5   62.0   62.0   59.8  29.997  0.00  0.00     0     0.00      0     0.0  0.00   0.0   0.024   0.000   74.4    59   59.1   75.1  10.77  .0732    0.000   204    7    100.0   10 
 9/24/20 10:50p   61.4   61.5   61.3    91   58.7   6.0     S   1.00  10.0   SSE   61.3   61.9   61.8   59.6  29.993  0.00  0.00     0     0.00      0     0.0  0.00   0.0   0.025   0.000   74.4    59   59.1   75.1  10.77  .0732    0.000   203    7    100.0   10 
 9/24/20 11:00p   61.3   61.5   61.3    91   58.7   5.0     S   0.83  11.0     S   61.3   61.8   61.8   59.6  29.985  0.00  0.00     0     0.00      0     0.0  0.00   0.0   0.026   0.000   74.4    59   59.1   75.1  10.77  .0732    0.001   204    7    100.0   10 
 9/24/20 11:10p   61.4   61.5   61.2    92   59.1   5.0     S   0.83  11.0     S   61.4   61.9   61.9   59.7  29.984  0.00  0.00     0     0.00      0     0.0  0.00   0.0   0.025   0.000   74.4    59   59.1   75.1  10.77  .0732    0.000   204    7    100.0   10 
 9/24/20 11:20p   60.6   61.4   60.5    92   58.3   4.0     S   0.67   7.0     S   60.6   61.0   61.0   58.8  29.984  0.00  0.00     0     0.00      0     0.0  0.00   0.0   0.031   0.000   74.3    59   59.0   75.0  10.78  .0732    0.000   203    7    100.0   10 
 9/24/20 11:30p   61.1   61.2   60.6    92   58.8   5.0     S   0.83  12.0   SSE   61.1   61.6   61.6   59.4  29.980  0.00  0.00     0     0.00      0     0.0  0.00   0.0   0.027   0.000   74.3    59   59.0   75.0  10.78  .0732    0.000   203    7    100.0   10 
 9/24/20 11:40p   60.9   61.2   60.9    92   58.6   4.0     S   0.67   9.0     S   60.9   61.3   61.3   59.1  29.983  0.00  0.00     0     0.00      0     0.0  0.00   0.0   0.028   0.000   74.3    59   59.0   75.0  10.78  .0732    0.000   204    7    100.0   10 
 9/24/20 11:50p   61.2   61.2   60.8    92   58.9   5.0     S   0.83  10.0   SSW   61.2   61.7   61.7   59.5  29.985  0.00  0.00     0     0.00      0     0.0  0.00   0.0   0.026   0.000   74.3    59   59.0   75.0  10.78  .0732    0.000   204    7    100.0   10 
 9/25/20 12:00a   61.5   61.5   61.2    92   59.2   7.0     S   1.17  11.0     S   61.1   62.0   61.6   59.4  29.982  0.00  0.00     0     0.00      0     0.0  0.00   0.0   0.024   0.000   74.3    59   59.0   75.0  10.78  .0732    0.000   204    7    100.0   10 
 9/25/20 12:10a   61.3   61.5   61.3    92   59.0   5.0     S   0.83  10.0   SSE   61.3   61.8   61.8   59.6  29.982  0.00  0.00     0     0.00      0     0.0  0.00   0.0   0.026   0.000   74.2    59   58.9   74.8  10.78  .0732    0.000   201    7    100.0   10 
 9/25/20 12:20a   61.3   61.4   61.2    92   59.0   7.0     S   1.17  12.0   SSE   60.8   61.8   61.3   59.1  29.980  0.00  0.00     0     0.00      0     0.0  0.00   0.0   0.026   0.000   74.2    59   58.9   74.8  10.78  .0732    0.000   203    7    100.0   10 
 9/25/20 12:30a   61.6   61.6   61.3    91   58.9   8.0     S   1.33  15.0     S   60.4   62.1   60.9   58.8  29.981  0.00  0.00     0     0.00      0     0.0  0.00   0.0   0.024   0.000   74.2    59   58.9   74.8  10.78  .0732    0.000   203    7    100.0   10 
 9/25/20 12:40a   61.7   61.7   61.5    91   59.0   8.0     S   1.33  19.0    SW   60.5   62.2   61.0   58.9  29.970  0.00  0.00     0     0.00      0     0.0  0.00   0.0   0.023   0.000   74.2    59   58.9   74.8  10.78  .0732    0.000   203    7    100.0   10 
 9/25/20 12:50a   61.8   61.8   61.6    90   58.8   9.0     S   1.50  20.0    SW   59.8   62.3   60.3   58.3  29.962  0.00  0.00     0     0.00      0     0.0  0.00   0.0   0.022   0.000   74.2    59   58.9   74.8  10.78  .0732    0.000   202    7    100.0   10 
 9/25/20  1:00a   61.7   61.8   61.7    90   58.7   8.0     S   1.33  14.0   SSW   60.5   62.2   61.0   58.9  29.965  0.00  0.00     0     0.00      0     0.0  0.00   0.0   0.023   0.000   74.2    59   58.9   74.8  10.78  .0732    0.001   203    7    100.0   10 
 9/25/20  1:10a   61.8   61.8   61.7    90   58.8   9.0     S   1.50  17.0     S   59.8   62.3   60.3   58.3  29.956  0.00  0.00     0     0.00      0     0.0  0.00   0.0   0.022   0.000   74.1    59   58.9   74.7  10.79  .0732    0.000   203    7    100.0   10 
 9/25/20  1:20a   61.7   61.8   61.7    90   58.7   9.0     S   1.50  17.0   SSW   59.7   62.2   60.2   58.2  29.955  0.00  0.00     0     0.00      0     0.0  0.00   0.0   0.023   0.000   74.1    59   58.9   74.7  10.79  .0732    0.000   202    7    100.0   10 
 9/25/20  1:30a   61.7   61.8   61.7    91   59.0   9.0     S   1.50  19.0   SSE   59.7   62.2   60.2   58.2  29.960  0.00  0.00     0     0.00      0     0.0  0.00   0.0   0.023   0.000   74.1    59   58.9   74.7  10.79  .0732    0.000   203    7    100.0   10 
 9/25/20  1:40a   61.5   61.7   61.5    91   58.8   9.0     S   1.50  14.0   SSE   59.5   62.0   60.0   58.0  29.957  0.00  0.00     0     0.00      0     0.0  0.00   0.0   0.024   0.000   74.0    59   58.8   74.6  10.79  .0732    0.000   203    7    100.0   10 
 9/25/20  1:50a   61.8   61.8   61.5    91   59.1  10.0     S   1.67  19.0     S   59.1   62.3   59.6   57.7  29.947  0.00  0.00     0     0.00      0     0.0  0.00   0.0   0.022   0.000   74.0    59   58.8   74.6  10.79  .0732    0.000   204    7    100.0   10 
 9/25/20  2:00a   61.9   61.9   61.7    90   58.9  11.0     S   1.83  19.0     S   58.5   62.4   59.0   57.1  29.949  0.00  0.00     0     0.00      0     0.0  0.00   0.0   0.022   0.000   74.0    59   58.8   74.6  10.79  .0732    0.001   204    7    100.0   10 
 9/25/20  2:10a   61.8   62.0   61.8    91   59.1  11.0     S   1.83  19.0     S   58.4   62.3   58.9   57.0  29.948  0.00  0.00     0     0.00      0     0.0  0.00   0.0   0.022   0.000   74.0    59   58.8   74.6  10.79  .0732    0.000   205    7    100.0   10 
 9/25/20  2:20a   61.7   61.8   61.7    91   59.0  11.0     S   1.83  17.0   SSE   58.3   62.2   58.8   56.9  29.932  0.00  0.00     0     0.00      0     0.0  0.00   0.0   0.023   0.000   73.9    58   58.2   74.4  10.59  .0732    0.000   204    7    100.0   10 
 9/25/20  2:30a   62.0   62.0   61.7    90   59.0  12.0     S   2.00  22.0   SSE   58.0   62.5   58.5   56.7  29.921  0.00  0.00     0     0.00      0     0.0  0.00   0.0   0.021   0.000   73.9    58   58.2   74.4  10.59  .0732    0.000   203    7    100.0   10 
 9/25/20  2:40a   62.0   62.0   61.9    90   59.0  12.0     S   2.00  23.0     S   58.0   62.5   58.5   56.7  29.925  0.00  0.00     0     0.00      0     0.0  0.00   0.0   0.021   0.000   73.9    58   58.2   74.4  10.59  .0732    0.000   204    7    100.0   10 
 9/25/20  2:50a   62.1   62.1   62.0    89   58.8  10.0     S   1.67  18.0     S   59.4   62.6   59.9   58.0  29.919  0.00  0.00     0     0.00      0     0.0  0.00   0.0   0.020   0.000   73.9    58   58.2   74.4  10.59  .0732    0.000   205    7    100.0   10 
 9/25/20  3:00a   62.1   62.2   62.1    89   58.8  11.0     S   1.83  19.0     S   58.7   62.6   59.2   57.3  29.918  0.00  0.00     0     0.00      0     0.0  0.00   0.0   0.020   0.000   73.9    58   58.2   74.4  10.59  .0732    0.001   203    7    100.0   10 
 9/25/20  3:10a   62.2   62.2   62.0    89   58.9  11.0     S   1.83  22.0     S   58.8   62.7   59.3   57.4  29.920  0.00  0.00     0     0.00      0     0.0  0.00   0.0   0.019   0.000   73.8    58   58.1   74.2  10.60  .0732    0.000   201    7    100.0   10 
 9/25/20  3:20a   62.0   62.2   62.0    90   59.0  11.0     S   1.83  19.0     S   58.6   62.5   59.1   57.2  29.930  0.00  0.00     0     0.00      0     0.0  0.00   0.0   0.021   0.000   73.8    58   58.1   74.2  10.60  .0732    0.000   204    7    100.0   10 
 9/25/20  3:30a   62.2   62.2   61.9    89   58.9  12.0     S   2.00  24.0     S   58.2   62.7   58.7   56.9  29.923  0.00  0.00     0     0.00      0     0.0  0.00   0.0   0.019   0.000   73.8    58   58.1   74.2  10.60  .0732    0.000   204    7    100.0   10 
 9/25/20  3:40a   62.3   62.4   62.1    89   59.0  13.0     S   2.17  24.0   SSE   57.9   62.8   58.4   56.7  29.924  0.00  0.00     0     0.00      0     0.0  0.00   0.0   0.019   0.000   73.8    58   58.1   74.2  10.60  .0732    0.000   202    7    100.0   10 
 9/25/20  3:50a   62.3   62.4   62.3    89   59.0  14.0     S   2.33  23.0     S   57.5   62.8   58.0   56.3  29.917  0.00  0.00     0     0.00      0     0.0  0.00   0.0   0.019   0.000   73.8    58   58.1   74.2  10.60  .0732    0.000   198    7    100.0   10 
 9/25/20  4:00a   62.3   62.4   62.2    89   59.0  14.0     S   2.33  23.0     S   57.5   62.8   58.0   56.3  29.912  0.00  0.00     0     0.00      0     0.0  0.00   0.0   0.019   0.000   73.7    59   58.5   74.2  10.80  .0732    0.001   205    7    100.0   10 
 9/25/20  4:10a   62.5   62.5   62.3    88   58.9  15.0     S   2.50  28.0     S   57.4   63.0   57.9   56.3  29.906  0.00  0.00     0     0.00      0     0.0  0.00   0.0   0.017   0.000   73.7    59   58.5   74.2  10.80  .0731    0.000   204    7    100.0   10 
 9/25/20  4:20a   62.5   62.5   62.4    88   58.9  15.0     S   2.50  27.0     S   57.4   63.0   57.9   56.3  29.908  0.00  0.00     0     0.00      0     0.0  0.00   0.0   0.017   0.000   73.7    58   58.0   74.1  10.60  .0732    0.000   204    7    100.0   10 
 9/25/20  4:30a   62.1   62.5   62.1    89   58.8  14.0     S   2.33  28.0     S   57.3   62.6   57.8   56.1  29.909  0.00  0.00     0     0.00      0     0.0  0.00   0.0   0.020   0.000   73.7    58   58.0   74.1  10.60  .0732    0.000   203    7    100.0   10 
 9/25/20  4:40a   62.2   62.3   62.1    89   58.9  15.0     S   2.50  30.0     S   57.0   62.7   57.5   55.9  29.900  0.00  0.00     0     0.00      0     0.0  0.00   0.0   0.019   0.000   73.6    58   57.9   74.0  10.61  .0732    0.000   203    7    100.0   10 
 9/25/20  4:50a   62.2   62.3   62.1    89   58.9  14.0     S   2.33  24.0     S   57.4   62.7   57.9   56.2  29.900  0.00  0.00     0     0.00      0     0.0  0.00   0.0   0.019   0.000   73.6    58   57.9   74.0  10.61  .0732    0.000   202    7    100.0   10 
 9/25/20  5:00a   61.8   62.2   61.8    90   58.8  16.0     S   2.67  26.0   SSE   56.3   62.3   56.8   55.2  29.903  0.00  0.00     0     0.00      0     0.0  0.00   0.0   0.022   0.000   73.6    58   57.9   74.0  10.61  .0732    0.001   203    7    100.0   10 
 9/25/20  5:10a   61.9   62.0   61.7    90   58.9  18.0     S   3.00  36.0   SSE   55.8   62.4   56.3   54.8  29.906  0.00  0.00     0     0.00      0     0.0  0.00   0.0   0.022   0.000   73.6    58   57.9   74.0  10.61  .0732    0.000   203    7    100.0   10 
 9/25/20  5:20a   61.5   61.9   61.5    91   58.8  17.0     S   2.83  26.0     S   55.7   62.0   56.2   54.7  29.908  0.00  0.00     0     0.00      0     0.0  0.00   0.0   0.024   0.000   73.6    58   57.9   74.0  10.61  .0732    0.000   204    7    100.0   10 
 9/25/20  5:30a   61.6   61.6   61.3    91   58.9  18.0     S   3.00  29.0     S   55.5   62.1   56.0   54.5  29.893  0.00  0.00     0     0.00      0     0.0  0.00   0.0   0.024   0.000   73.5    58   57.8   73.9  10.61  .0732    0.000   203    7    100.0   10 
 9/25/20  5:40a   61.4   61.7   61.4    92   59.1  19.0     S   3.17  28.0     S   55.0   61.9   55.5   54.0  29.886  0.00  0.00     0     0.00      0     0.0  0.00   0.0   0.025   0.000   73.5    59   58.3   74.0  10.81  .0731    0.000   203    7    100.0   10 
 9/25/20  5:50a   61.1   61.4   61.0    93   59.1  19.0     S   3.17  31.0     S   54.7   61.6   55.2   53.7  29.884  0.02  0.08     0     0.00      0     0.0  0.00   0.0   0.027   0.000   73.4    59   58.2   73.8  10.81  .0731    0.000   204    7    100.0   10 
 9/25/20  6:00a   60.9   61.1   60.8    93   58.9  19.0     S   3.17  35.0     S   54.5   61.4   55.0   53.5  29.889  0.01  0.10     0     0.00      0     0.0  0.00   0.0   0.028   0.000   73.3    59   58.1   73.7  10.82  .0732    0.001   203    7    100.0   10 
 9/25/20  6:10a   60.7   60.9   60.7    94   59.0  20.0     S   3.33  37.0     S   54.0   61.2   54.5   53.1  29.880  0.01  0.10     0     0.00      0     0.0  0.00   0.0   0.030   0.000   73.3    59   58.1   73.7  10.82  .0731    0.000   204    7    100.0   10 
 9/25/20  6:20a   60.5   60.7   60.5    94   58.8  18.0     S   3.00  30.0     S   54.3   60.9   54.7   53.2  29.878  0.01  0.07     0     0.00      0     0.0  0.00   0.0   0.031   0.000   73.2    59   58.0   73.6  10.82  .0732    0.000   203    7    100.0   10 
 9/25/20  6:30a   60.7   60.7   60.5    94   59.0  19.0     S   3.17  34.0     S   54.2   61.2   54.7   53.2  29.868  0.00  0.05     0     0.00      0     0.0  0.00   0.0   0.030   0.000   73.2    59   58.0   73.6  10.82  .0731    0.000   204    7    100.0   10 
 9/25/20  6:40a   60.7   60.7   60.6    93   58.7  19.0     S   3.17  33.0   SSE   54.2   61.1   54.6   53.1  29.860  0.01  0.05     0     0.00      0     0.0  0.00   0.0   0.030   0.000   73.2    59   58.0   73.6  10.82  .0731    0.000   201    7    100.0   10 
 9/25/20  6:50a   60.7   60.8   60.6    93   58.7  19.0     S   3.17  33.0     S   54.2   61.1   54.6   53.1  29.868  0.00  0.00     0     0.00      0     0.0  0.00   0.0   0.030   0.000   73.1    59   57.9   73.4  10.83  .0732    0.000   204    7    100.0   10 
 9/25/20  7:00a   61.0   61.0   60.7    93   59.0  19.0     S   3.17  29.0     S   54.6   61.5   55.1   53.6  29.876  0.00  0.00     0     0.00      0     0.0  0.00   0.0   0.028   0.000   73.1    59   57.9   73.4  10.83  .0732    0.001   203    7    100.0   10 
 9/25/20  7:10a   60.9   61.1   60.9    93   58.9  20.0     S   3.33  35.0     S   54.2   61.4   54.7   53.3  29.872  0.00  0.00     0     0.00      0     0.0  0.00   0.0   0.028   0.000   73.1    59   57.9   73.4  10.83  .0732    0.000   204    7    100.0   10 
 9/25/20  7:20a   60.9   60.9   60.7    93   58.9  21.0     S   3.50  36.0     S   54.0   61.4   54.5   53.1  29.869  0.00  0.00     0     0.00      0     0.0  0.00   0.0   0.028   0.000   73.1    59   57.9   73.4  10.83  .0732    0.000   201    7    100.0   10 
 9/25/20  7:30a   60.5   60.9   60.5    94   58.8  19.0     S   3.17  37.0   SSE   54.0   60.9   54.4   52.9  29.880  0.00  0.00     0     0.00      0     0.0  0.00   0.0   0.031   0.000   73.1    59   57.9   73.4  10.83  .0732    0.000   203    7    100.0   10 
 9/25/20  7:40a   60.3   60.5   60.2    94   58.6  22.0     S   3.67  36.0     S   53.1   60.7   53.5   52.1  29.880  0.01  0.00     1     0.01      5     0.0  0.00   0.0   0.033   0.000   73.1    59   57.9   73.4  10.83  .0732    0.000   202    7    100.0   10 
 9/25/20  7:50a   60.3   60.4   60.2    94   58.6  23.0     S   3.83  39.0     S   52.9   60.7   53.3   52.5  29.878  0.00  0.00     9     0.13     12     0.0  0.00   0.0   0.033   0.000   73.1    59   57.9   73.4  10.83  .0732    0.000   204    7    100.0   10 
 9/25/20  8:00a   60.0   60.3   59.9    95   58.6  21.0     S   3.50  31.0   SSE   53.0   60.4   53.4   52.8  29.884  0.00  0.00    16     0.23     18     0.0  0.00   0.0   0.035   0.000   73.1    59   57.9   73.4  10.83  .0732    0.001   203    7    100.0   10 
 9/25/20  8:10a   59.9   60.0   59.9    95   58.5  20.0     S   3.33  34.0     S   53.1   60.3   53.5   52.9  29.876  0.00  0.00    17     0.24     23     0.0  0.00   0.0   0.035   0.000   73.1    59   57.9   73.4  10.83  .0732    0.000   204    7    100.0   10 
 9/25/20  8:20a   60.0   60.0   59.8    95   58.6  20.0     S   3.33  35.0   SSE   53.2   60.4   53.6   53.1  29.873  0.00  0.00    22     0.32     25     0.0  0.00   0.0   0.035   0.000   73.1    60   58.4   73.5  10.99  .0731    0.000   204    7    100.0   10 
 9/25/20  8:30a   60.5   60.5   60.0    94   58.8  21.0     S   3.50  40.0     S   53.6   60.9   54.0   53.5  29.877  0.00  0.00    22     0.32     28     0.0  0.00   0.0   0.031   0.000   73.1    60   58.4   73.5  10.99  .0732    0.000   205    7    100.0   10 
 9/25/20  8:40a   60.7   60.8   60.5    93   58.7  22.0     S   3.67  37.0     S   53.6   61.1   54.0   53.8  29.876  0.00  0.00    33     0.47     40     0.0  0.00   0.0   0.030   0.000   73.1    60   58.4   73.5  10.99  .0732    0.000   203    7    100.0   10 
 9/25/20  8:50a   60.6   60.7   60.5    94   58.9  22.0     S   3.67  38.0   SSE   53.5   61.0   53.9   53.5  29.881  0.01  0.00    28     0.40     32     0.0  0.00   0.0   0.031   0.000   73.1    60   58.4   73.5  10.99  .0732    0.000   203    7    100.0   10 
 9/25/20  9:00a   60.5   60.6   60.4    95   59.1  22.0     S   3.67  38.0   SSW   53.4   61.0   53.9   54.3  29.876  0.02  0.15    59     0.85     88     0.0  0.00   0.0   0.031   0.000   73.2    60   58.5   73.7  10.99  .0731    0.002   201    7    100.0   10 
 9/25/20  9:10a   60.4   60.5   60.4    94   58.7  23.0     S   3.83  36.0   SSE   53.0   60.8   53.4   53.6  29.880  0.00  0.04    54     0.77     67     0.0  0.00   0.0   0.032   0.000   73.2    59   58.0   73.6  10.82  .0732    0.000   204    7    100.0   10 
 9/25/20  9:20a   60.4   60.5   60.4    94   58.7  21.0     S   3.50  41.0   SSE   53.4   60.8   53.8   53.9  29.881  0.00  0.00    53     0.76     84     0.1  0.01   0.5   0.032   0.000   73.2    59   58.0   73.6  10.82  .0732    0.000   204    7    100.0   10 
 9/25/20  9:30a   60.2   60.4   60.2    94   58.5  21.0     S   3.50  38.0   SSE   53.2   60.6   53.6   54.2  29.890  0.00  0.00    77     1.10    100     0.2  0.01   0.6   0.033   0.000   73.3    60   58.6   73.8  10.98  .0732    0.000   202    7    100.0   10 
 9/25/20  9:40a   60.2   60.3   60.1    95   58.8  21.0     S   3.50  41.0   SSE   53.2   60.6   53.6   54.3  29.885  0.00  0.00    81     1.16    107     0.3  0.02   0.6   0.033   0.000   73.2    59   58.0   73.6  10.82  .0732    0.000   204    7    100.0   10 
 9/25/20  9:50a   60.2   60.2   60.1    94   58.5  23.0     S   3.83  40.0    SW   52.8   60.6   53.2   54.1  29.891  0.00  0.00    95     1.36    132     0.5  0.04   0.8   0.033   0.000   73.3    59   58.1   73.7  10.82  .0732    0.000   204    7    100.0   10 
 9/25/20 10:00a   60.3   60.3   60.2    94   58.6  23.0     S   3.83  42.0   SSE   52.9   60.7   53.3   54.1  29.891  0.01  0.00    94     1.35    100     0.6  0.04   0.7   0.033   0.000   73.3    59   58.1   73.7  10.82  .0732    0.003   202    7    100.0   10 
 9/25/20 10:10a   60.2   60.3   60.1    95   58.8  22.0     S   3.67  46.0   SSE   53.0   60.6   53.4   54.5  29.898  0.00  0.00   110     1.58    121     0.7  0.05   0.8   0.033   0.000   73.4    59   58.2   73.8  10.81  .0732    0.000   204    7    100.0   10 
 9/25/20 10:20a   59.9   60.2   59.9    95   58.5  20.0     S   3.33  34.0   SSE   53.1   60.3   53.5   54.3  29.895  0.00  0.00    95     1.36    148     0.7  0.05   1.0   0.035   0.000   73.4    59   58.2   73.8  10.81  .0732    0.000   204    7    100.0   10 
 9/25/20 10:30a   59.7   60.0   59.7    96   58.6  19.0     S   3.17  28.0     S   53.1   60.1   53.5   54.6  29.910  0.00  0.00   115     1.65    172     0.8  0.06   1.2   0.037   0.000   73.5    59   58.3   74.0  10.81  .0732    0.000   204    7    100.0   10 
 9/25/20 10:40a   59.6   59.7   59.6    96   58.5  19.0     S   3.17  33.0     S   53.0   60.0   53.4   53.4  29.915  0.00  0.00    61     0.87     81     0.3  0.02   0.6   0.038   0.000   73.5    59   58.3   74.0  10.81  .0732    0.000   201    7    100.0   10 
 9/25/20 10:50a   59.7   59.8   59.5    95   58.3  20.0     S   3.33  32.0   SSE   52.9   60.1   53.3   53.6  29.915  0.00  0.00    74     1.06     91     0.5  0.04   0.7   0.037   0.000   73.5    59   58.3   74.0  10.81  .0732    0.000   202    7    100.0   10 
 9/25/20 11:00a   59.8   59.8   59.6    95   58.4  21.0     S   3.50  40.0     S   52.8   60.2   53.2   53.7  29.910  0.00  0.00    89     1.28    109     0.7  0.05   0.8   0.036   0.000   73.5    59   58.3   74.0  10.81  .0732    0.003   205    7    100.0   10 
 9/25/20 11:10a   59.6   59.9   59.6    96   58.5  21.0     S   3.50  33.0   SSE   52.5   60.0   52.9   53.6  29.921  0.00  0.00   103     1.48    116     0.8  0.06   1.0   0.038   0.000   73.5    59   58.3   74.0  10.81  .0732    0.000   203    7    100.0   10 
 9/25/20 11:20a   59.6   59.6   59.5    96   58.5  19.0     S   3.17  31.0     S   53.0   60.0   53.4   53.7  29.929  0.00  0.00    83     1.19    107     0.8  0.06   1.0   0.038   0.000   73.5    58   57.8   73.9  10.61  .0733    0.000   203    7    100.0   10 
 9/25/20 11:30a   59.5   59.6   59.5    96   58.4  20.0     S   3.33  31.0   SSW   52.7   59.9   53.1   53.2  29.936  0.00  0.00    74     1.06     90     0.6  0.04   0.8   0.038   0.000   73.5    59   58.3   74.0  10.81  .0733    0.000   204    7    100.0   10 
 9/25/20 11:40a   59.5   59.6   59.5    97   58.6  19.0     S   3.17  35.0     S   52.9   60.0   53.4   54.1  29.935  0.00  0.00   102     1.46    155     0.8  0.06   1.2   0.038   0.000   73.5    58   57.8   73.9  10.61  .0733    0.000   204    7    100.0   10 
 9/25/20 11:50a   59.2   59.5   59.2    97   58.3  17.0     S   2.83  27.0   SSE   53.0   59.6   53.4   53.5  29.942  0.02  0.11    72     1.03     93     0.6  0.04   0.8   0.040   0.000   73.5    58   57.8   73.9  10.61  .0733    0.000   202    7    100.0   10 
 9/25/20 12:00p   59.3   59.3   59.2    97   58.4  17.0     S   2.83  29.0   SSE   53.1   59.8   53.6   53.5  29.929  0.01  0.13    65     0.93     77     0.5  0.04   0.7   0.040   0.000   73.5    58   57.8   73.9  10.61  .0733    0.002   201    7    100.0   10 
 9/25/20 12:10p   59.4   59.5   59.2    97   58.5  21.0     S   3.50  33.0     S   52.3   59.9   52.8   53.0  29.939  0.00  0.04    80     1.15     86     0.7  0.05   0.8   0.039   0.000   73.5    58   57.8   73.9  10.61  .0733    0.000   204    7    100.0   10 
 9/25/20 12:20p   59.4   59.5   59.3    97   58.5  20.0     S   3.33  33.0   SSE   52.5   59.9   53.0   53.1  29.943  0.00  0.00    73     1.05     88     0.6  0.04   0.8   0.039   0.000   73.5    59   58.3   74.0  10.81  .0733    0.000   204    7    100.0   10 
 9/25/20 12:30p   59.3   59.4   59.2    97   58.4  17.0     S   2.83  27.0     S   53.1   59.8   53.6   53.5  29.949  0.00  0.00    67     0.96     84     0.6  0.04   0.8   0.040   0.000   73.5    59   58.3   74.0  10.81  .0733    0.000   204    7    100.0   10 
 9/25/20 12:40p   59.1   59.3   59.1    97   58.2  17.0     S   2.83  27.0   SSE   52.9   59.5   53.3   53.2  29.954  0.02  0.18    65     0.93     79     0.5  0.04   0.7   0.041   0.000   73.5    59   58.3   74.0  10.81  .0733    0.000   203    7    100.0   10 
 9/25/20 12:50p   59.0   59.1   59.0    98   58.4  17.0     S   2.83  27.0   SSE   52.8   59.5   53.3   53.4  29.948  0.01  0.18    74     1.06     97     0.6  0.04   0.9   0.042   0.000   73.6    59   58.4   74.1  10.81  .0733    0.000   200    7    100.0   10 
 9/25/20  1:00p   58.9   59.1   58.9    98   58.3  18.0     S   3.00  29.0   SSE   52.4   59.4   52.9   53.2  29.959  0.00  0.00    88     1.26     98     0.9  0.06   1.0   0.042   0.000   73.6    59   58.4   74.1  10.81  .0733    0.002   205    7    100.0   10 
Email: AdamSPAM@StormwatchersRetreat.com (To send me email remove the word 'SPAM' from my email address.)